Ahtanum, Washington
Current Conditions -  °F | °C
As of 9:53 PM on Friday 24 Oct 2014 (Local Time) from KYKM Reporting Station
Overcast Overcast  
Wind Chill: 44°   Ceiling: 2900
Heat Index: 48°   Visibility: 10mi
Dew Point: 45°   Wind: 8mph
Humidity: 89%   Direction: 260°W
Pressure: 29.94"   Gusts: NA
Location:  46.5979°N, 120.534°W
Report Text: KYKM 250453Z 26007KT 10SM OVC029 09/07 A2994 RMK AO2 RAE23 SLP141 P0000 T00890072
Loading
Personal Weather Stations






























Interactive Weather Map New forecast layout! Learn more

10-Day Weather Forecast

Advertisements
Track Severe Weather on mobile